createdAt,value
2023-03-06T00:00:27.350Z,9.30
2023-03-06T00:02:54.139Z,8.63
2023-03-06T00:05:20.965Z,9.23
2023-03-06T00:07:48.015Z,9.25
2023-03-06T00:10:20.024Z,9.30
2023-03-06T00:12:47.131Z,9.20
2023-03-06T00:15:14.239Z,9.43
2023-03-06T00:17:41.510Z,8.20
2023-03-06T00:20:10.756Z,8.75
2023-03-06T00:22:38.134Z,8.60
2023-03-06T00:25:05.759Z,8.70
2023-03-06T00:27:33.057Z,7.72
2023-03-06T00:30:00.773Z,9.25
2023-03-06T00:32:29.404Z,8.65
2023-03-06T00:34:56.431Z,8.90
2023-03-06T00:37:25.026Z,8.95
2023-03-06T00:39:51.994Z,8.50
2023-03-06T00:42:19.305Z,8.38
2023-03-06T00:44:46.301Z,8.88
2023-03-06T00:47:13.562Z,8.55
2023-03-06T00:49:40.191Z,8.77
2023-03-06T00:52:07.079Z,8.60
2023-03-06T00:54:33.637Z,8.20
2023-03-06T00:57:00.258Z,7.95
2023-03-06T00:59:27.855Z,8.23
2023-03-06T01:01:55.247Z,8.75
2023-03-06T01:04:22.016Z,9.02
2023-03-06T01:06:49.335Z,8.93
2023-03-06T01:09:16.279Z,8.10
2023-03-06T01:11:42.964Z,8.75
2023-03-06T01:14:09.947Z,8.20
2023-03-06T01:16:36.702Z,9.00
2023-03-06T01:19:03.760Z,9.13
2023-03-06T01:21:30.617Z,7.82
2023-03-06T01:23:57.256Z,8.38
2023-03-06T01:26:24.420Z,9.15
2023-03-06T01:28:51.306Z,8.77
2023-03-06T01:31:17.975Z,9.15
2023-03-06T01:33:44.615Z,8.38
2023-03-06T01:36:13.030Z,8.98
2023-03-06T01:38:39.863Z,8.98
2023-03-06T01:41:06.965Z,9.13
2023-03-06T01:43:37.170Z,9.40
2023-03-06T01:46:27.255Z,8.88
2023-03-06T01:49:23.365Z,9.00
2023-03-06T01:52:00.141Z,9.00
2023-03-06T01:54:55.473Z,9.77
2023-03-06T01:57:30.974Z,8.57
2023-03-06T02:00:14.212Z,8.15
2023-03-06T02:02:43.890Z,8.48
2023-03-06T02:05:12.078Z,9.95
2023-03-06T02:07:41.936Z,8.90
2023-03-06T02:10:09.613Z,8.23
2023-03-06T02:12:37.681Z,9.48
2023-03-06T02:15:04.853Z,9.43
2023-03-06T02:17:35.193Z,9.25
2023-03-06T02:20:13.414Z,8.55
2023-03-06T02:22:58.276Z,9.18
2023-03-06T02:25:43.370Z,8.45
2023-03-06T02:28:17.524Z,7.85
2023-03-06T02:33:14.601Z,8.75
2023-03-06T02:35:46.848Z,7.88
2023-03-06T02:38:19.076Z,8.77
2023-03-06T02:40:49.754Z,8.27
2023-03-06T02:43:21.311Z,8.60
2023-03-06T02:45:51.199Z,8.18
2023-03-06T02:48:18.896Z,8.95
2023-03-06T02:50:46.511Z,8.88
2023-03-06T02:53:14.907Z,8.43
2023-03-06T02:55:41.879Z,9.18
2023-03-06T02:58:08.913Z,9.77
2023-03-06T03:00:36.367Z,9.30
2023-03-06T03:03:04.157Z,9.35
2023-03-06T03:05:30.875Z,9.05
2023-03-06T03:07:57.777Z,9.10
2023-03-06T03:10:24.661Z,9.07
2023-03-06T03:12:51.526Z,9.75
2023-03-06T03:15:18.706Z,9.30
2023-03-06T03:17:45.470Z,9.48
2023-03-06T03:20:14.467Z,9.38
2023-03-06T03:22:43.323Z,8.88
2023-03-06T03:25:10.164Z,9.77
2023-03-06T03:27:36.772Z,8.15
2023-03-06T03:30:04.513Z,9.18
2023-03-06T03:32:31.281Z,8.85
2023-03-06T03:34:57.928Z,9.25
2023-03-06T03:37:24.557Z,8.38
2023-03-06T03:39:51.167Z,8.82
2023-03-06T03:42:17.874Z,7.97
2023-03-06T03:44:44.588Z,9.32
2023-03-06T03:47:11.191Z,9.50
2023-03-06T03:49:38.718Z,8.40
2023-03-06T03:52:05.496Z,8.60
2023-03-06T03:54:32.320Z,9.27
2023-03-06T03:56:58.913Z,8.73
2023-03-06T03:59:25.728Z,8.65
2023-03-06T04:01:53.019Z,8.60
2023-03-06T04:04:19.681Z,8.50
2023-03-06T04:06:46.272Z,8.48
2023-03-06T04:09:12.937Z,7.60
2023-03-06T04:11:39.631Z,7.88
2023-03-06T04:14:08.519Z,8.13
2023-03-06T04:16:35.450Z,7.72
2023-03-06T04:19:02.098Z,8.73
2023-03-06T04:21:28.787Z,7.72
2023-03-06T04:23:55.498Z,7.57
2023-03-06T04:26:22.134Z,8.50
2023-03-06T04:28:49.064Z,8.63
2023-03-06T04:31:16.177Z,7.65
2023-03-06T04:33:42.823Z,7.75
2023-03-06T04:36:25.020Z,7.63
2023-03-06T04:38:51.676Z,8.20
2023-03-06T04:41:18.415Z,8.02
2023-03-06T04:43:46.351Z,8.55
2023-03-06T04:46:13.046Z,9.13
2023-03-06T04:48:39.664Z,8.30
2023-03-06T04:51:06.615Z,10.18
2023-03-06T04:53:33.303Z,8.98
2023-03-06T04:55:59.943Z,8.38
2023-03-06T04:58:26.552Z,8.95
2023-03-06T05:00:53.409Z,10.10
2023-03-06T05:03:20.164Z,9.23
2023-03-06T05:05:46.826Z,8.82
2023-03-06T05:08:15.428Z,8.10
2023-03-06T05:10:43.558Z,9.75
2023-03-06T05:13:10.667Z,8.70
2023-03-06T05:15:40.159Z,8.73
2023-03-06T05:18:06.891Z,9.43
2023-03-06T05:20:33.983Z,9.18
2023-03-06T05:23:00.670Z,9.57
2023-03-06T05:25:27.269Z,9.50
2023-03-06T05:27:54.190Z,9.18
2023-03-06T05:30:23.136Z,9.85
2023-03-06T05:32:50.804Z,9.77
2023-03-06T05:35:23.007Z,10.40
2023-03-06T05:37:50.074Z,9.82
2023-03-06T05:40:17.864Z,10.30
2023-03-06T05:42:45.004Z,10.25
2023-03-06T05:45:12.189Z,10.45
2023-03-06T05:47:39.013Z,9.82
2023-03-06T05:50:08.466Z,9.32
2023-03-06T05:52:35.066Z,9.23
2023-03-06T05:55:01.988Z,9.75
2023-03-06T05:57:28.923Z,9.90
2023-03-06T05:59:55.594Z,10.48
2023-03-06T06:02:22.710Z,11.85
2023-03-06T06:04:49.613Z,10.10
2023-03-06T06:07:17.019Z,9.25
2023-03-06T06:09:45.662Z,8.45
2023-03-06T06:12:13.203Z,8.35
2023-03-06T06:14:40.028Z,9.40
2023-03-06T06:17:07.467Z,8.18
2023-03-06T06:19:34.311Z,8.57
2023-03-06T06:22:02.781Z,8.38
2023-03-06T06:24:30.670Z,8.98
2023-03-06T06:26:58.421Z,8.93
2023-03-06T06:29:26.089Z,8.60
2023-03-06T06:31:54.050Z,8.15
2023-03-06T06:34:21.574Z,8.00
2023-03-06T06:36:48.362Z,7.50
2023-03-06T06:39:17.017Z,7.78
2023-03-06T06:41:59.819Z,6.55
2023-03-06T06:44:31.256Z,6.32
2023-03-06T06:47:21.904Z,6.68
2023-03-06T06:49:48.262Z,5.97
2023-03-06T06:52:15.359Z,6.78
2023-03-06T06:54:41.918Z,7.05
2023-03-06T06:57:10.611Z,6.15
2023-03-06T06:59:37.457Z,6.80
2023-03-06T07:02:04.268Z,7.25
2023-03-06T07:04:31.294Z,10.27
2023-03-06T07:06:58.605Z,7.13
2023-03-06T07:09:25.495Z,6.20
2023-03-06T07:11:52.360Z,6.32
2023-03-06T07:14:19.073Z,6.97
2023-03-06T07:16:45.744Z,7.13
2023-03-06T07:19:12.400Z,6.88
2023-03-06T07:21:39.186Z,7.03
2023-03-06T07:24:06.349Z,7.00
2023-03-06T07:26:34.759Z,7.32
2023-03-06T07:29:02.490Z,6.60
2023-03-06T07:31:29.249Z,7.60
2023-03-06T07:33:56.204Z,6.47
2023-03-06T07:36:23.827Z,6.50
2023-03-06T07:38:50.614Z,7.25
2023-03-06T07:41:21.869Z,5.88
2023-03-06T07:43:50.430Z,6.85
2023-03-06T07:46:17.544Z,7.43
2023-03-06T07:48:44.718Z,6.85
2023-03-06T07:51:20.304Z,7.68
2023-03-06T07:53:48.502Z,6.95
2023-03-06T07:56:15.299Z,7.18
2023-03-06T07:58:44.539Z,6.95
2023-03-06T08:01:14.066Z,7.40
2023-03-06T08:03:41.191Z,6.65
2023-03-06T08:06:17.462Z,6.78
2023-03-06T08:08:46.609Z,6.60
2023-03-06T08:11:15.581Z,6.93
2023-03-06T08:13:42.912Z,6.85
2023-03-06T08:16:10.451Z,7.78
2023-03-06T08:18:39.834Z,7.05
2023-03-06T08:21:18.549Z,6.85
2023-03-06T08:23:45.983Z,7.00
2023-03-06T08:26:15.713Z,7.47
2023-03-06T08:28:43.078Z,7.55
2023-03-06T08:31:19.035Z,8.13
2023-03-06T08:33:45.647Z,7.40
2023-03-06T08:36:12.290Z,7.35
2023-03-06T08:38:39.242Z,6.57
2023-03-06T08:41:06.082Z,6.53
2023-03-06T08:43:33.770Z,6.80
2023-03-06T08:46:00.610Z,6.75
2023-03-06T08:48:27.945Z,7.35
2023-03-06T08:50:54.757Z,7.30
2023-03-06T08:53:28.013Z,6.88
2023-03-06T08:56:04.416Z,7.45
2023-03-06T08:58:31.151Z,6.85
2023-03-06T09:00:58.154Z,6.00
2023-03-06T09:03:25.757Z,6.53
2023-03-06T09:05:52.756Z,6.47
2023-03-06T09:08:19.333Z,6.82
2023-03-06T09:10:48.213Z,6.25
2023-03-06T09:13:15.089Z,6.20
2023-03-06T09:15:41.851Z,6.20
2023-03-06T09:18:08.600Z,6.35
2023-03-06T09:20:35.744Z,5.97
2023-03-06T09:23:02.331Z,5.90
2023-03-06T09:25:29.256Z,5.20
2023-03-06T09:28:10.382Z,6.25
2023-03-06T09:30:40.817Z,6.20
2023-03-06T09:33:08.003Z,6.05
2023-03-06T09:35:34.917Z,6.38
2023-03-06T09:38:01.647Z,6.25
2023-03-06T09:40:49.778Z,6.22
2023-03-06T09:43:25.745Z,5.55
2023-03-06T09:45:52.877Z,4.53
2023-03-06T09:48:28.939Z,5.00
2023-03-06T09:51:03.390Z,5.30
2023-03-06T09:54:01.220Z,5.25
2023-03-06T09:56:32.844Z,5.80
2023-03-06T09:59:17.642Z,5.93
2023-03-06T10:01:56.413Z,5.43
2023-03-06T10:04:42.459Z,6.75
2023-03-06T10:07:18.404Z,5.75
2023-03-06T10:10:01.336Z,5.90
2023-03-06T10:12:34.040Z,5.97
2023-03-06T10:15:22.541Z,6.22
2023-03-06T10:17:49.777Z,5.57
2023-03-06T10:20:23.027Z,5.97
2023-03-06T10:23:24.940Z,5.90
2023-03-06T10:25:57.261Z,5.63
2023-03-06T10:28:52.610Z,6.10
2023-03-06T10:31:23.705Z,5.60
2023-03-06T10:34:19.427Z,5.80
2023-03-06T10:36:46.034Z,5.30
2023-03-06T10:39:19.884Z,5.65
2023-03-06T10:41:47.996Z,5.30
2023-03-06T10:44:14.585Z,4.30
2023-03-06T10:46:44.707Z,4.65
2023-03-06T10:49:14.404Z,5.03
2023-03-06T10:51:57.203Z,4.55
2023-03-06T10:54:24.301Z,4.20
2023-03-06T10:56:50.961Z,4.60
2023-03-06T10:59:19.729Z,4.55
2023-03-06T11:01:51.600Z,4.25
2023-03-06T11:04:26.332Z,5.15
2023-03-06T11:07:07.511Z,4.55
2023-03-06T11:09:34.691Z,4.47
2023-03-06T11:12:36.750Z,4.30
2023-03-06T11:15:17.921Z,4.55
2023-03-06T11:17:58.263Z,4.80
2023-03-06T11:20:52.366Z,4.75
2023-03-06T11:23:25.522Z,4.88
2023-03-06T11:26:08.473Z,4.95
2023-03-06T11:28:42.386Z,4.70
2023-03-06T11:31:31.741Z,4.82
2023-03-06T11:34:11.152Z,5.00
2023-03-06T11:36:44.581Z,4.93
2023-03-06T11:39:28.310Z,4.80
2023-03-06T11:42:10.952Z,5.17
2023-03-06T11:44:44.570Z,5.40
2023-03-06T11:47:18.327Z,4.88
2023-03-06T11:49:54.011Z,5.50
2023-03-06T11:52:40.820Z,5.07
2023-03-06T11:55:15.552Z,4.75
2023-03-06T11:57:53.170Z,5.30
2023-03-06T12:00:24.068Z,6.30
2023-03-06T12:03:00.976Z,4.82
2023-03-06T12:05:34.089Z,5.05
2023-03-06T12:08:19.990Z,5.38
2023-03-06T12:10:54.837Z,4.82
2023-03-06T12:13:39.847Z,4.65
2023-03-06T12:16:32.340Z,5.20
2023-03-06T12:19:30.459Z,4.75
2023-03-06T12:22:26.403Z,4.95
2023-03-06T12:25:02.372Z,5.70
2023-03-06T12:27:32.067Z,5.05
2023-03-06T12:30:20.725Z,5.50
2023-03-06T12:32:53.486Z,4.82
2023-03-06T12:35:34.984Z,5.18
2023-03-06T12:38:16.984Z,8.63
2023-03-06T12:40:43.906Z,6.15
2023-03-06T12:43:47.496Z,5.45
2023-03-06T12:46:17.582Z,5.50
2023-03-06T12:48:52.973Z,5.18
2023-03-06T12:51:21.460Z,5.28
2023-03-06T12:53:49.980Z,5.82
2023-03-06T12:56:18.808Z,5.53
2023-03-06T12:58:49.490Z,5.90
2023-03-06T13:01:55.521Z,6.03
2023-03-06T13:04:40.552Z,5.80
2023-03-06T13:07:07.299Z,6.07
2023-03-06T13:09:58.641Z,5.40
2023-03-06T13:12:55.972Z,5.20
2023-03-06T13:15:39.219Z,5.40
2023-03-06T13:18:24.128Z,5.88
2023-03-06T13:20:57.639Z,5.80
2023-03-06T13:23:33.421Z,5.97
2023-03-06T13:26:02.842Z,5.32
2023-03-06T13:28:46.378Z,5.15
2023-03-06T13:31:26.567Z,5.65
2023-03-06T13:33:56.486Z,5.43
2023-03-06T13:36:23.152Z,5.68
2023-03-06T13:38:53.029Z,5.10
2023-03-06T13:41:23.493Z,5.18
2023-03-06T13:43:53.452Z,5.35
2023-03-06T13:46:36.230Z,5.68
2023-03-06T13:49:08.652Z,5.70
2023-03-06T13:51:55.635Z,5.47
2023-03-06T13:54:25.149Z,11.75
2023-03-06T13:56:54.400Z,5.60
2023-03-06T13:59:54.442Z,5.28
2023-03-06T14:03:06.797Z,5.18
2023-03-06T14:05:53.990Z,5.15
2023-03-06T14:08:24.860Z,4.93
2023-03-06T14:11:21.162Z,5.50
2023-03-06T14:13:54.570Z,5.15
2023-03-06T14:16:27.893Z,5.20
2023-03-06T14:18:57.582Z,5.95
2023-03-06T14:21:48.473Z,5.07
2023-03-06T14:24:20.300Z,5.57
2023-03-06T14:26:51.919Z,5.90
2023-03-06T14:29:24.707Z,5.10
2023-03-06T14:31:53.703Z,5.22
2023-03-06T14:34:30.377Z,5.40
2023-03-06T14:37:02.233Z,5.20
2023-03-06T14:39:39.532Z,5.38
2023-03-06T14:42:21.359Z,4.95
2023-03-06T14:44:49.882Z,5.15
2023-03-06T14:47:31.601Z,5.10
2023-03-06T14:50:21.554Z,5.50
2023-03-06T14:52:50.345Z,5.32
2023-03-06T14:55:23.664Z,5.32
2023-03-06T14:58:02.515Z,5.27
2023-03-06T15:00:38.168Z,5.25
2023-03-06T15:03:08.737Z,5.82
2023-03-06T15:05:35.729Z,6.13
2023-03-06T15:08:07.077Z,5.20
2023-03-06T15:10:35.887Z,5.28
2023-03-06T15:13:11.503Z,5.43
2023-03-06T15:15:38.410Z,5.00
2023-03-06T15:18:29.210Z,5.20
2023-03-06T15:21:08.272Z,5.30
2023-03-06T15:23:40.746Z,6.15
2023-03-06T15:26:29.445Z,5.82
2023-03-06T15:29:08.278Z,5.28
2023-03-06T15:31:39.058Z,5.72
2023-03-06T15:34:11.483Z,5.47
2023-03-06T15:36:40.476Z,5.43
2023-03-06T15:39:33.461Z,5.22
2023-03-06T15:42:01.708Z,5.30
2023-03-06T15:44:31.749Z,4.85
2023-03-06T15:47:08.448Z,5.78
2023-03-06T15:49:38.320Z,5.35
2023-03-06T15:52:08.552Z,5.20
2023-03-06T15:54:35.799Z,5.15
2023-03-06T15:57:06.171Z,5.35
2023-03-06T15:59:41.526Z,5.00
2023-03-06T16:02:17.150Z,4.88
2023-03-06T16:04:44.317Z,4.78
2023-03-06T16:07:11.634Z,4.72
2023-03-06T16:09:38.426Z,6.07
2023-03-06T16:12:05.930Z,6.18
2023-03-06T16:14:32.686Z,5.00
2023-03-06T16:16:59.937Z,5.45
2023-03-06T16:19:27.789Z,5.22
2023-03-06T16:21:55.848Z,5.47
2023-03-06T16:24:24.076Z,4.80
2023-03-06T16:26:52.586Z,5.45
2023-03-06T16:29:25.084Z,5.13
2023-03-06T16:31:55.262Z,5.00
2023-03-06T16:34:22.131Z,5.18
2023-03-06T16:36:49.575Z,4.93
2023-03-06T16:39:18.864Z,5.63
2023-03-06T16:41:49.463Z,6.45
2023-03-06T16:44:16.690Z,6.25
2023-03-06T16:46:46.976Z,6.22
2023-03-06T16:49:16.925Z,5.97
2023-03-06T16:51:44.507Z,6.65
2023-03-06T16:54:12.128Z,6.45
2023-03-06T16:56:38.799Z,6.32
2023-03-06T16:59:05.502Z,7.70
2023-03-06T17:01:32.285Z,11.23
2023-03-06T17:03:59.063Z,7.85
2023-03-06T17:06:25.817Z,16.90
2023-03-06T17:08:52.629Z,18.60
2023-03-06T17:11:22.006Z,12.77
2023-03-06T17:13:48.913Z,13.98
2023-03-06T17:16:16.721Z,12.00
2023-03-06T17:18:45.531Z,13.48
2023-03-06T17:21:15.753Z,13.07
2023-03-06T17:23:42.913Z,13.10
2023-03-06T17:26:12.866Z,12.35
2023-03-06T17:28:40.286Z,13.23
2023-03-06T17:31:13.166Z,13.45
2023-03-06T17:33:40.092Z,12.98
2023-03-06T17:36:07.431Z,12.65
2023-03-06T17:38:34.652Z,11.52
2023-03-06T17:41:06.187Z,16.00
2023-03-06T17:43:33.752Z,19.95
2023-03-06T17:46:08.758Z,16.35
2023-03-06T17:48:36.271Z,16.40
2023-03-06T17:51:03.657Z,19.45
2023-03-06T17:53:30.357Z,23.38
2023-03-06T17:55:59.993Z,19.85
2023-03-06T17:58:27.220Z,21.58
2023-03-06T18:00:53.844Z,23.38
2023-03-06T18:03:21.101Z,18.30
2023-03-06T18:05:47.882Z,33.60
2023-03-06T18:08:14.564Z,26.08
2023-03-06T18:10:43.494Z,21.30
2023-03-06T18:13:10.993Z,16.55
2023-03-06T18:15:41.630Z,13.85
2023-03-06T18:18:08.950Z,15.07
2023-03-06T18:20:41.051Z,12.70
2023-03-06T18:23:07.851Z,11.80
2023-03-06T18:25:38.108Z,10.98
2023-03-06T18:28:05.993Z,11.23
2023-03-06T18:30:36.316Z,12.43
2023-03-06T18:33:03.052Z,12.15
2023-03-06T18:35:29.707Z,11.70
2023-03-06T18:37:56.353Z,11.50
2023-03-06T18:40:24.850Z,16.88
2023-03-06T18:42:54.847Z,16.10
2023-03-06T18:45:21.619Z,14.98
2023-03-06T18:47:48.226Z,15.77
2023-03-06T18:50:16.516Z,15.00
2023-03-06T18:52:44.132Z,17.67
2023-03-06T18:55:11.111Z,19.27
2023-03-06T18:57:38.101Z,23.58
2023-03-06T19:00:06.739Z,28.15
2023-03-06T19:02:33.483Z,22.35
2023-03-06T19:05:00.124Z,21.08
2023-03-06T19:07:26.858Z,21.63
2023-03-06T19:09:53.542Z,21.83
2023-03-06T19:12:20.220Z,18.20
2023-03-06T19:14:48.447Z,20.58
2023-03-06T19:17:15.141Z,15.43
2023-03-06T19:19:41.713Z,16.02
2023-03-06T19:22:08.429Z,16.48
2023-03-06T19:24:35.220Z,15.77
2023-03-06T19:27:01.877Z,14.63
2023-03-06T19:29:28.747Z,12.45
2023-03-06T19:31:57.338Z,13.32
2023-03-06T19:34:24.155Z,12.80
2023-03-06T19:36:51.041Z,10.80
2023-03-06T19:39:17.652Z,10.60
2023-03-06T19:41:46.420Z,7.90
2023-03-06T19:44:14.608Z,7.65
2023-03-06T19:46:41.435Z,8.80
2023-03-06T19:49:12.139Z,8.88
2023-03-06T19:51:39.052Z,10.52
2023-03-06T19:54:05.845Z,10.88
2023-03-06T19:56:33.710Z,10.40
2023-03-06T19:59:00.561Z,9.70
2023-03-06T20:01:28.249Z,9.27
2023-03-06T20:03:59.442Z,7.57
2023-03-06T20:06:29.061Z,7.60
2023-03-06T20:08:56.120Z,8.25
2023-03-06T20:11:25.764Z,7.88
2023-03-06T20:13:54.277Z,14.75
2023-03-06T20:16:21.155Z,16.75
2023-03-06T20:18:47.811Z,14.07
2023-03-06T20:21:14.769Z,12.45
2023-03-06T20:23:41.965Z,8.85
2023-03-06T20:26:11.887Z,8.82
2023-03-06T20:28:39.948Z,7.05
2023-03-06T20:31:18.236Z,6.43
2023-03-06T20:33:48.057Z,6.55
2023-03-06T20:36:17.710Z,29.10
2023-03-06T20:38:45.450Z,26.20
2023-03-06T20:41:20.947Z,23.05
2023-03-06T20:43:48.283Z,22.67
2023-03-06T20:46:15.569Z,19.25
2023-03-06T20:48:43.368Z,20.23
2023-03-06T20:51:24.480Z,19.38
2023-03-06T20:53:55.815Z,19.30
2023-03-06T20:56:25.883Z,18.08
2023-03-06T20:58:53.221Z,16.73
2023-03-06T21:01:31.407Z,13.75
2023-03-06T21:03:59.796Z,12.85
2023-03-06T21:06:28.533Z,16.33
2023-03-06T21:08:57.035Z,18.42
2023-03-06T21:11:24.482Z,16.50
2023-03-06T21:13:52.715Z,17.40
2023-03-06T21:16:21.949Z,15.73
2023-03-06T21:18:48.577Z,14.93
2023-03-06T21:21:18.486Z,14.38
2023-03-06T21:23:46.829Z,14.07
2023-03-06T21:26:19.437Z,13.75
2023-03-06T21:28:46.559Z,13.73
2023-03-06T21:31:15.204Z,13.93
2023-03-06T21:33:42.118Z,22.52
2023-03-06T21:36:09.673Z,20.05
2023-03-06T21:38:36.815Z,18.30
2023-03-06T21:41:28.960Z,13.25
2023-03-06T21:43:57.317Z,15.77
2023-03-06T21:46:24.498Z,14.80
2023-03-06T21:48:51.608Z,16.20
2023-03-06T21:51:20.307Z,16.90
2023-03-06T21:53:48.576Z,14.88
2023-03-06T21:56:17.763Z,16.70
2023-03-06T21:58:45.553Z,15.05
2023-03-06T22:01:31.500Z,14.68
2023-03-06T22:04:00.604Z,15.40
2023-03-06T22:06:28.910Z,13.75
2023-03-06T22:08:56.480Z,14.90
2023-03-06T22:11:24.943Z,14.23
2023-03-06T22:13:53.456Z,13.32
2023-03-06T22:16:20.903Z,13.20
2023-03-06T22:18:50.024Z,11.27
2023-03-06T22:21:19.198Z,11.10
2023-03-06T22:23:53.020Z,11.20
2023-03-06T22:26:20.611Z,10.45
2023-03-06T22:28:47.323Z,11.50
2023-03-06T22:31:17.197Z,10.55
2023-03-06T22:33:44.580Z,9.52
2023-03-06T22:36:14.390Z,10.30
2023-03-06T22:38:44.033Z,10.82
2023-03-06T22:41:12.281Z,9.52
2023-03-06T22:43:39.081Z,9.77
2023-03-06T22:46:25.716Z,10.40
2023-03-06T22:48:52.560Z,10.55
2023-03-06T22:51:20.967Z,7.30
2023-03-06T22:53:48.721Z,6.68
2023-03-06T22:56:17.928Z,9.07
2023-03-06T22:58:45.029Z,16.52
2023-03-06T23:01:20.450Z,17.92
2023-03-06T23:03:49.817Z,18.02
2023-03-06T23:06:26.003Z,16.50
2023-03-06T23:09:08.131Z,12.65
2023-03-06T23:11:35.336Z,12.02
2023-03-06T23:14:02.371Z,11.30
2023-03-06T23:16:29.375Z,11.02
2023-03-06T23:18:56.217Z,11.68
2023-03-06T23:21:24.328Z,13.63
2023-03-06T23:23:52.916Z,13.88
2023-03-06T23:26:23.543Z,14.77
2023-03-06T23:28:50.246Z,12.25
2023-03-06T23:31:20.175Z,9.98
2023-03-06T23:33:47.942Z,9.35
2023-03-06T23:36:17.079Z,11.70
2023-03-06T23:38:44.774Z,14.27
2023-03-06T23:41:14.786Z,15.07
2023-03-06T23:43:41.788Z,13.88
2023-03-06T23:46:09.030Z,13.52
2023-03-06T23:48:37.431Z,10.13
2023-03-06T23:51:13.706Z,12.95
2023-03-06T23:53:40.768Z,17.83
2023-03-06T23:56:07.986Z,18.58
2023-03-06T23:58:35.249Z,10.77
